createdAt,value
2018-09-17T00:01:23.468Z,65.40
2018-09-17T00:03:51.609Z,65.50
2018-09-17T00:06:19.617Z,65.00
2018-09-17T00:08:54.463Z,65.00
2018-09-17T00:11:22.487Z,65.40
2018-09-17T00:13:50.503Z,65.00
2018-09-17T00:16:18.571Z,65.40
2018-09-17T00:18:46.630Z,64.80
2018-09-17T00:21:14.680Z,65.40
2018-09-17T00:23:42.829Z,65.30
2018-09-17T00:26:10.878Z,65.30
2018-09-17T00:28:38.950Z,65.30
2018-09-17T00:31:07.415Z,65.60
2018-09-17T00:33:35.520Z,65.80
2018-09-17T00:36:03.800Z,66.10
2018-09-17T00:38:31.856Z,66.50
2018-09-17T00:40:59.904Z,66.80
2018-09-17T00:43:27.929Z,67.10
2018-09-17T00:45:55.968Z,67.40
2018-09-17T00:48:24.024Z,67.80
2018-09-17T00:50:52.103Z,68.00
2018-09-17T00:53:20.377Z,68.40
2018-09-17T00:55:48.410Z,68.90
2018-09-17T00:58:16.436Z,69.10
2018-09-17T01:00:44.478Z,69.50
2018-09-17T01:03:12.491Z,69.90
2018-09-17T01:05:40.516Z,70.30
2018-09-17T01:08:08.969Z,71.40
2018-09-17T01:10:36.991Z,70.90
2018-09-17T01:13:05.010Z,71.40
2018-09-17T01:15:33.231Z,71.40
2018-09-17T01:18:01.250Z,71.70
2018-09-17T01:20:29.282Z,72.60
2018-09-17T01:22:57.431Z,71.70
2018-09-17T01:25:25.457Z,72.20
2018-09-17T01:27:53.522Z,72.10
2018-09-17T01:30:21.771Z,72.20
2018-09-17T01:32:50.069Z,72.40
2018-09-17T01:35:18.120Z,72.60
2018-09-17T01:37:46.465Z,72.50
2018-09-17T01:40:14.552Z,72.60
2018-09-17T01:42:42.698Z,72.90
2018-09-17T01:45:11.002Z,72.90
2018-09-17T01:47:39.040Z,72.80
2018-09-17T01:50:07.365Z,72.90
2018-09-17T01:52:35.507Z,72.90
2018-09-17T01:55:03.543Z,73.00
2018-09-17T01:57:31.651Z,73.10
2018-09-17T01:59:59.687Z,73.20
2018-09-17T02:02:27.708Z,73.30
2018-09-17T02:04:55.848Z,73.20
2018-09-17T02:07:23.987Z,73.40
2018-09-17T02:09:52.074Z,73.60
2018-09-17T02:12:20.099Z,74.50
2018-09-17T02:14:48.480Z,73.90
2018-09-17T02:17:16.511Z,74.10
2018-09-17T02:19:44.555Z,74.50
2018-09-17T02:22:12.766Z,74.70
2018-09-17T02:24:40.776Z,75.10
2018-09-17T02:27:08.800Z,75.10
2018-09-17T02:29:36.862Z,75.30
2018-09-17T02:32:04.879Z,75.30
2018-09-17T02:34:33.139Z,75.40
2018-09-17T02:37:01.279Z,75.70
2018-09-17T02:39:29.329Z,75.70
2018-09-17T02:41:57.359Z,76.00
2018-09-17T02:44:25.657Z,76.40
2018-09-17T02:46:53.691Z,76.40
2018-09-17T02:49:21.711Z,76.60
2018-09-17T02:51:49.842Z,76.70
2018-09-17T02:54:17.991Z,76.80
2018-09-17T02:56:46.062Z,77.10
2018-09-17T02:59:14.100Z,77.00
2018-09-17T03:01:42.148Z,77.20
2018-09-17T03:04:10.233Z,77.40
2018-09-17T03:06:38.473Z,77.60
2018-09-17T03:09:08.089Z,77.60
2018-09-17T03:11:36.234Z,77.60
2018-09-17T03:14:04.296Z,77.90
2018-09-17T03:16:32.354Z,77.90
2018-09-17T03:19:00.519Z,78.00
2018-09-17T03:21:28.537Z,78.30
2018-09-17T03:23:56.607Z,78.40
2018-09-17T03:26:24.699Z,78.50
2018-09-17T03:28:52.946Z,78.60
2018-09-17T03:31:21.024Z,78.40
2018-09-17T03:36:48.090Z,78.20
2018-09-17T03:39:16.253Z,78.30
2018-09-17T03:41:44.278Z,78.40
2018-09-17T03:44:12.319Z,78.40
2018-09-17T03:46:40.665Z,78.70
2018-09-17T03:49:08.663Z,78.60
2018-09-17T03:51:36.767Z,78.70
2018-09-17T03:54:04.884Z,78.80
2018-09-17T03:56:32.870Z,78.70
2018-09-17T03:59:00.918Z,78.30
2018-09-17T04:01:28.999Z,77.80
2018-09-17T04:03:56.990Z,78.10
2018-09-17T04:06:24.989Z,78.00
2018-09-17T04:08:53.460Z,78.60
2018-09-17T04:11:21.687Z,78.00
2018-09-17T04:13:49.715Z,78.30
2018-09-17T04:16:18.043Z,78.20
2018-09-17T04:18:46.159Z,78.30
2018-09-17T04:21:14.198Z,78.30
2018-09-17T04:23:42.262Z,78.20
2018-09-17T04:26:11.445Z,78.20
2018-09-17T04:28:39.827Z,77.90
2018-09-17T04:31:07.861Z,77.90
2018-09-17T04:33:37.710Z,77.80
2018-09-17T04:36:05.852Z,78.10
2018-09-17T04:38:34.258Z,78.30
2018-09-17T04:41:02.473Z,78.40
2018-09-17T04:43:30.712Z,78.40
2018-09-17T04:45:58.998Z,78.30
2018-09-17T04:48:27.292Z,78.10
2018-09-17T04:50:55.535Z,77.70
2018-09-17T04:53:23.656Z,77.90
2018-09-17T04:55:51.727Z,77.50
2018-09-17T04:58:20.266Z,77.10
2018-09-17T05:00:48.585Z,76.50
2018-09-17T05:03:16.701Z,76.00
2018-09-17T05:05:44.767Z,75.90
2018-09-17T05:08:13.144Z,75.50
2018-09-17T05:10:41.196Z,75.20
2018-09-17T05:13:09.414Z,74.70
2018-09-17T05:15:37.477Z,74.40
2018-09-17T05:18:05.537Z,73.50
2018-09-17T05:20:33.596Z,72.80
2018-09-17T05:23:01.630Z,71.20
2018-09-17T05:25:29.791Z,67.10
2018-09-17T05:27:57.997Z,63.70
2018-09-17T05:30:26.043Z,59.80
2018-09-17T05:32:54.191Z,57.20
2018-09-17T05:35:22.230Z,55.20
2018-09-17T05:37:50.254Z,53.20
2018-09-17T05:40:18.410Z,51.40
2018-09-17T05:42:46.829Z,49.30
2018-09-17T05:45:15.005Z,47.30
2018-09-17T05:47:43.030Z,45.30
2018-09-17T05:50:11.098Z,43.00
2018-09-17T05:52:39.122Z,42.00
2018-09-17T05:55:07.222Z,41.10
2018-09-17T05:57:35.272Z,40.50
2018-09-17T06:00:03.294Z,39.90
2018-09-17T06:02:31.379Z,39.10
2018-09-17T06:04:59.520Z,37.50
2018-09-17T06:07:27.626Z,36.60
2018-09-17T06:09:55.769Z,35.60
2018-09-17T06:12:23.974Z,34.60
2018-09-17T06:14:52.019Z,33.70
2018-09-17T06:17:20.107Z,33.20
2018-09-17T06:19:48.161Z,32.50
2018-09-17T06:22:16.218Z,31.70
2018-09-17T06:24:44.295Z,31.00
2018-09-17T06:27:12.520Z,30.40
2018-09-17T06:29:40.654Z,30.00
2018-09-17T06:32:08.716Z,30.00
2018-09-17T06:34:36.986Z,29.40
2018-09-17T06:37:05.014Z,29.10
2018-09-17T06:39:33.022Z,29.00
2018-09-17T06:42:01.832Z,28.70
2018-09-17T06:44:29.899Z,28.60
2018-09-17T06:46:57.959Z,28.20
2018-09-17T06:49:26.095Z,27.80
2018-09-17T06:51:54.099Z,27.80
2018-09-17T06:54:22.186Z,27.30
2018-09-17T06:56:50.300Z,26.20
2018-09-17T06:59:18.416Z,26.20
2018-09-17T07:01:46.632Z,25.90
2018-09-17T07:04:14.699Z,25.50
2018-09-17T07:06:42.956Z,24.90
2018-09-17T07:09:11.927Z,24.80
2018-09-17T07:11:39.933Z,25.00
2018-09-17T07:14:08.281Z,24.80
2018-09-17T07:16:36.433Z,24.50
2018-09-17T07:19:04.473Z,24.30
2018-09-17T07:21:32.954Z,23.80
2018-09-17T07:24:01.435Z,23.80
2018-09-17T07:26:29.797Z,23.20
2018-09-17T07:28:58.781Z,22.80
2018-09-17T07:31:27.037Z,22.70
2018-09-17T07:33:55.111Z,22.20
2018-09-17T07:36:23.253Z,21.80
2018-09-17T07:38:51.298Z,21.90
2018-09-17T07:41:19.346Z,21.60
2018-09-17T07:43:48.075Z,21.70
2018-09-17T07:46:16.288Z,21.60
2018-09-17T07:48:44.334Z,21.10
2018-09-17T07:51:12.354Z,21.20
2018-09-17T07:53:40.522Z,20.90
2018-09-17T07:56:08.561Z,21.00
2018-09-17T07:58:36.639Z,21.10
2018-09-17T08:01:04.910Z,20.90
2018-09-17T08:03:32.967Z,20.50
2018-09-17T08:06:01.081Z,20.70
2018-09-17T08:08:29.113Z,20.40
2018-09-17T08:10:57.278Z,20.60
2018-09-17T08:13:25.279Z,20.60
2018-09-17T08:15:53.576Z,20.30
2018-09-17T08:18:21.630Z,20.50
2018-09-17T08:20:49.680Z,20.70
2018-09-17T08:23:17.971Z,20.90
2018-09-17T08:25:46.042Z,20.90
2018-09-17T08:28:14.120Z,20.90
2018-09-17T08:30:42.618Z,20.60
2018-09-17T08:33:10.763Z,20.60
2018-09-17T08:35:38.882Z,20.20
2018-09-17T08:38:07.192Z,20.50
2018-09-17T08:40:35.313Z,20.20
2018-09-17T08:43:03.363Z,20.10
2018-09-17T08:45:31.903Z,20.70
2018-09-17T08:47:59.911Z,20.90
2018-09-17T08:50:27.962Z,21.40
2018-09-17T08:52:56.082Z,21.70
2018-09-17T08:55:29.442Z,21.70
2018-09-17T08:58:03.090Z,21.60
2018-09-17T09:00:36.674Z,22.10
2018-09-17T09:03:10.674Z,22.10
2018-09-17T09:05:42.938Z,22.40
2018-09-17T09:11:25.930Z,22.40
2018-09-17T09:13:56.095Z,22.10
2018-09-17T09:16:24.902Z,22.40
2018-09-17T09:18:52.954Z,22.70
2018-09-17T09:21:20.967Z,22.50
2018-09-17T09:23:50.788Z,22.40
2018-09-17T09:26:18.847Z,22.70
2018-09-17T09:28:46.870Z,23.10
2018-09-17T09:31:15.354Z,23.30
2018-09-17T09:33:43.369Z,23.00
2018-09-17T09:36:11.374Z,22.90
2018-09-17T09:38:39.419Z,22.40
2018-09-17T09:41:07.502Z,21.70
2018-09-17T09:43:35.731Z,21.20
2018-09-17T09:46:03.762Z,20.60
2018-09-17T09:48:31.779Z,20.10
2018-09-17T09:50:59.926Z,20.40
2018-09-17T09:53:27.981Z,20.50
2018-09-17T09:55:56.014Z,20.40
2018-09-17T09:58:24.150Z,20.00
2018-09-17T10:00:57.640Z,19.80
2018-09-17T10:03:31.081Z,20.40
2018-09-17T10:05:59.110Z,20.30
2018-09-17T10:08:27.101Z,20.60
2018-09-17T10:11:00.702Z,20.90
2018-09-17T10:13:34.170Z,21.10
2018-09-17T10:16:07.767Z,22.00
2018-09-17T10:18:41.295Z,22.80
2018-09-17T10:21:09.866Z,23.60
2018-09-17T10:23:37.990Z,24.90
2018-09-17T10:26:06.059Z,25.30
2018-09-17T10:28:34.266Z,26.00
2018-09-17T10:31:02.408Z,26.20
2018-09-17T10:33:30.623Z,26.70
2018-09-17T10:35:58.812Z,26.80
2018-09-17T10:38:27.024Z,26.90
2018-09-17T10:40:55.078Z,27.20
2018-09-17T10:43:23.149Z,27.40
2018-09-17T10:45:51.216Z,27.80
2018-09-17T10:48:19.297Z,27.70
2018-09-17T10:50:47.440Z,27.70
2018-09-17T10:53:15.599Z,27.80
2018-09-17T10:55:43.663Z,27.90
2018-09-17T10:58:11.739Z,27.70
2018-09-17T11:00:39.866Z,27.50
2018-09-17T11:03:07.936Z,27.70
2018-09-17T11:05:36.363Z,27.80
2018-09-17T11:08:05.304Z,27.70
2018-09-17T11:10:33.522Z,27.60
2018-09-17T11:13:01.620Z,27.80
2018-09-17T11:15:35.123Z,28.40
2018-09-17T11:18:03.407Z,28.60
2018-09-17T11:20:31.465Z,28.00
2018-09-17T11:22:59.538Z,28.30
2018-09-17T11:25:27.581Z,28.00
2018-09-17T11:27:55.623Z,27.70
2018-09-17T11:30:23.664Z,27.80
2018-09-17T11:32:52.228Z,27.90
2018-09-17T11:35:20.287Z,27.80
2018-09-17T11:37:48.611Z,28.00
2018-09-17T11:40:16.671Z,28.10
2018-09-17T11:42:44.726Z,28.20
2018-09-17T11:45:12.783Z,28.10
2018-09-17T11:47:40.847Z,28.20
2018-09-17T11:50:08.972Z,27.70
2018-09-17T11:52:36.977Z,27.60
2018-09-17T11:55:05.009Z,27.30
2018-09-17T11:57:33.018Z,27.40
2018-09-17T12:00:00.999Z,27.40
2018-09-17T12:02:35.689Z,27.40
2018-09-17T12:05:08.853Z,27.70
2018-09-17T12:07:41.119Z,27.70
2018-09-17T12:10:09.674Z,27.70
2018-09-17T12:12:38.352Z,27.60
2018-09-17T12:15:06.679Z,28.00
2018-09-17T12:17:35.247Z,27.80
2018-09-17T12:20:03.417Z,27.10
2018-09-17T12:22:31.561Z,27.20
2018-09-17T12:24:59.630Z,27.30
2018-09-17T12:27:27.633Z,27.30
2018-09-17T12:29:55.662Z,27.30
2018-09-17T12:32:23.683Z,27.40
2018-09-17T12:34:51.715Z,27.10
2018-09-17T12:37:19.942Z,27.30
2018-09-17T12:39:47.986Z,27.20
2018-09-17T12:42:16.014Z,27.20
2018-09-17T12:44:44.109Z,27.10
2018-09-17T12:47:12.275Z,27.20
2018-09-17T12:49:40.507Z,27.40
2018-09-17T12:52:08.934Z,27.50
2018-09-17T12:54:36.981Z,27.40
2018-09-17T12:57:05.030Z,27.50
2018-09-17T12:59:33.069Z,27.40
2018-09-17T13:02:01.223Z,27.20
2018-09-17T13:04:29.254Z,27.30
2018-09-17T13:06:57.282Z,27.20
2018-09-17T13:09:25.967Z,27.20
2018-09-17T13:11:54.016Z,27.00
2018-09-17T13:14:22.146Z,26.90
2018-09-17T13:16:50.161Z,26.70
2018-09-17T13:19:18.141Z,26.70
2018-09-17T13:21:46.328Z,26.60
2018-09-17T13:24:14.351Z,26.80
2018-09-17T13:26:42.357Z,26.80
2018-09-17T13:29:10.921Z,26.70
2018-09-17T13:31:38.956Z,26.60
2018-09-17T13:34:06.951Z,26.80
2018-09-17T13:36:35.183Z,26.60
2018-09-17T13:39:03.414Z,26.90
2018-09-17T13:41:31.486Z,26.60
2018-09-17T13:43:59.586Z,26.40
2018-09-17T13:46:27.624Z,26.80
2018-09-17T13:48:55.715Z,27.50
2018-09-17T13:51:23.776Z,26.40
2018-09-17T13:53:51.829Z,26.30
2018-09-17T13:56:19.823Z,26.30
2018-09-17T13:58:48.620Z,26.60
2018-09-17T14:01:16.667Z,26.40
2018-09-17T14:03:44.670Z,26.40
2018-09-17T14:06:13.581Z,26.10
2018-09-17T14:08:41.661Z,26.40
2018-09-17T14:11:09.898Z,26.20
2018-09-17T14:13:37.975Z,26.20
2018-09-17T14:16:07.039Z,26.10
2018-09-17T14:18:35.316Z,25.90
2018-09-17T14:21:03.366Z,26.00
2018-09-17T14:23:31.560Z,25.70
2018-09-17T14:25:59.659Z,25.60
2018-09-17T14:28:27.710Z,25.40
2018-09-17T14:30:55.750Z,25.50
2018-09-17T14:33:29.325Z,25.50
2018-09-17T14:35:57.349Z,25.60
2018-09-17T14:38:25.628Z,25.20
2018-09-17T14:40:54.016Z,25.70
2018-09-17T14:43:22.160Z,25.10
2018-09-17T14:45:50.143Z,25.20
2018-09-17T14:48:18.627Z,25.20
2018-09-17T14:50:46.685Z,25.10
2018-09-17T14:53:14.770Z,25.60
2018-09-17T14:55:42.810Z,25.30
2018-09-17T14:58:11.516Z,25.30
2018-09-17T15:00:39.494Z,25.30
2018-09-17T15:03:07.528Z,25.50
2018-09-17T15:05:35.541Z,25.40
2018-09-17T15:08:03.702Z,25.30
2018-09-17T15:10:32.212Z,25.60
2018-09-17T15:13:00.150Z,25.70
2018-09-17T15:15:28.248Z,25.60
2018-09-17T15:17:56.238Z,26.10
2018-09-17T15:20:24.337Z,25.70
2018-09-17T15:22:52.349Z,25.90
2018-09-17T15:25:20.737Z,25.90
2018-09-17T15:27:48.940Z,26.50
2018-09-17T15:30:17.014Z,26.30
2018-09-17T15:32:45.099Z,26.40
2018-09-17T15:35:13.128Z,26.40
2018-09-17T15:37:41.170Z,26.40
2018-09-17T15:40:09.309Z,26.60
2018-09-17T15:42:37.328Z,26.70
2018-09-17T15:45:05.485Z,26.60
2018-09-17T15:47:33.969Z,26.70
2018-09-17T15:50:02.154Z,26.90
2018-09-17T15:52:30.345Z,27.20
2018-09-17T15:54:58.434Z,26.80
2018-09-17T15:57:26.933Z,26.60
2018-09-17T15:59:55.104Z,26.80
2018-09-17T16:02:23.463Z,26.80
2018-09-17T16:04:51.520Z,27.40
2018-09-17T16:07:19.627Z,27.20
2018-09-17T16:09:47.853Z,27.60
2018-09-17T16:12:15.857Z,27.80
2018-09-17T16:14:44.602Z,27.90
2018-09-17T16:17:12.711Z,28.90
2018-09-17T16:19:40.712Z,29.50
2018-09-17T16:24:59.223Z,28.80
2018-09-17T16:27:27.590Z,29.40
2018-09-17T16:29:55.598Z,29.80
2018-09-17T16:32:23.631Z,32.50
2018-09-17T16:34:51.807Z,32.00
2018-09-17T16:37:19.795Z,29.20
2018-09-17T16:39:47.822Z,28.80
2018-09-17T16:42:15.827Z,31.10
2018-09-17T16:44:43.856Z,28.50
2018-09-17T16:47:12.099Z,28.90
2018-09-17T16:49:40.013Z,29.20
2018-09-17T16:52:08.092Z,29.00
2018-09-17T16:54:36.660Z,28.80
2018-09-17T16:57:04.697Z,29.50
2018-09-17T16:59:32.763Z,30.60
2018-09-17T17:02:00.839Z,31.20
2018-09-17T17:04:28.878Z,31.70
2018-09-17T17:06:56.911Z,32.40
2018-09-17T17:09:24.961Z,33.60
2018-09-17T17:11:53.169Z,33.60
2018-09-17T17:14:21.134Z,34.50
2018-09-17T17:16:49.710Z,35.20
2018-09-17T17:19:17.842Z,35.80
2018-09-17T17:21:45.901Z,36.10
2018-09-17T17:24:14.143Z,36.50
2018-09-17T17:26:42.357Z,35.80
2018-09-17T17:29:10.797Z,36.80
2018-09-17T17:31:38.847Z,37.90
2018-09-17T17:34:06.905Z,38.50
2018-09-17T17:36:35.184Z,38.30
2018-09-17T17:39:03.307Z,38.40
2018-09-17T17:41:31.391Z,38.60
2018-09-17T17:43:59.453Z,39.00
2018-09-17T17:46:28.010Z,39.30
2018-09-17T17:48:55.943Z,39.40
2018-09-17T17:51:24.028Z,39.60
2018-09-17T17:53:52.224Z,40.00
2018-09-17T17:56:20.338Z,40.40
2018-09-17T17:58:48.363Z,40.60
2018-09-17T18:01:16.487Z,40.90
2018-09-17T18:03:44.494Z,41.30
2018-09-17T18:06:12.491Z,41.50
2018-09-17T18:08:40.535Z,42.30
2018-09-17T18:11:08.568Z,41.80
2018-09-17T18:13:36.742Z,42.50
2018-09-17T18:16:05.176Z,42.60
2018-09-17T18:18:33.192Z,42.80
2018-09-17T18:21:01.231Z,43.10
2018-09-17T18:23:29.298Z,43.10
2018-09-17T18:25:57.310Z,43.80
2018-09-17T18:28:25.319Z,44.00
2018-09-17T18:30:53.607Z,44.60
2018-09-17T18:33:21.757Z,44.80
2018-09-17T18:35:49.745Z,45.10
2018-09-17T18:38:17.810Z,45.30
2018-09-17T18:40:45.858Z,45.40
2018-09-17T18:43:13.866Z,45.70
2018-09-17T18:45:42.078Z,45.80
2018-09-17T18:48:10.121Z,46.00
2018-09-17T18:50:38.126Z,46.20
2018-09-17T18:53:06.475Z,46.40
2018-09-17T18:55:34.519Z,46.70
2018-09-17T18:58:02.592Z,46.70
2018-09-17T19:00:30.668Z,46.60
2018-09-17T19:02:58.884Z,46.90
2018-09-17T19:05:26.831Z,46.80
2018-09-17T19:07:54.878Z,47.20
2018-09-17T19:10:22.858Z,47.40
2018-09-17T19:12:50.884Z,47.40
2018-09-17T19:15:24.247Z,47.70
2018-09-17T19:17:52.400Z,47.80
2018-09-17T19:20:20.619Z,47.90
2018-09-17T19:24:16.552Z,47.50
2018-09-17T19:26:44.566Z,48.10
2018-09-17T19:29:19.298Z,48.00
2018-09-17T19:31:47.894Z,48.20
2018-09-17T19:34:16.170Z,48.40
2018-09-17T19:36:44.840Z,48.60
2018-09-17T19:39:18.272Z,48.80
2018-09-17T19:41:46.434Z,49.00
2018-09-17T19:44:14.434Z,49.50
2018-09-17T19:46:42.432Z,49.50
2018-09-17T19:49:11.195Z,49.80
2018-09-17T19:51:44.706Z,49.80
2018-09-17T19:54:12.824Z,50.20
2018-09-17T19:56:40.849Z,50.20
2018-09-17T19:59:14.335Z,50.30
2018-09-17T20:01:42.362Z,50.40
2018-09-17T20:04:15.824Z,50.60
2018-09-17T20:06:44.077Z,50.80
2018-09-17T20:09:12.297Z,51.10
2018-09-17T20:11:40.766Z,51.10
2018-09-17T20:14:08.802Z,51.50
2018-09-17T20:16:36.835Z,51.40
2018-09-17T20:19:04.912Z,51.40
2018-09-17T20:21:33.058Z,51.30
2018-09-17T20:24:01.106Z,51.10
2018-09-17T20:26:29.154Z,51.40
2018-09-17T20:28:57.199Z,51.30
2018-09-17T20:31:25.211Z,51.50
2018-09-17T20:33:53.973Z,51.70
2018-09-17T20:36:22.042Z,51.70
2018-09-17T20:38:50.090Z,51.80
2018-09-17T20:41:18.135Z,51.70
2018-09-17T20:43:46.208Z,51.70
2018-09-17T20:46:14.253Z,51.50
2018-09-17T20:48:42.329Z,51.60
2018-09-17T20:51:10.910Z,51.70
2018-09-17T20:53:38.928Z,51.80
2018-09-17T20:56:07.056Z,51.80
2018-09-17T20:58:35.052Z,52.70
2018-09-17T21:01:03.158Z,52.10
2018-09-17T21:03:31.111Z,52.20
2018-09-17T21:05:59.125Z,52.10
2018-09-17T21:08:27.167Z,52.60
2018-09-17T21:10:55.252Z,52.50
2018-09-17T21:13:24.181Z,52.80
2018-09-17T21:15:52.146Z,52.80
2018-09-17T21:18:20.477Z,53.00
2018-09-17T21:20:48.530Z,53.30
2018-09-17T21:23:16.560Z,53.40
2018-09-17T21:25:44.649Z,53.30
2018-09-17T21:28:12.692Z,53.60
2018-09-17T21:30:40.714Z,53.50
2018-09-17T21:33:08.764Z,53.80
2018-09-17T21:35:36.935Z,54.00
2018-09-17T21:38:05.007Z,54.10
2018-09-17T21:40:33.073Z,54.10
2018-09-17T21:43:01.096Z,54.20
2018-09-17T21:45:29.110Z,54.60
2018-09-17T21:47:57.494Z,54.80
2018-09-17T21:50:25.511Z,54.80
2018-09-17T21:52:53.575Z,54.80
2018-09-17T21:55:21.727Z,54.90
2018-09-17T21:57:49.778Z,55.10
2018-09-17T22:00:18.856Z,55.20
2018-09-17T22:02:47.103Z,55.10
2018-09-17T22:05:15.130Z,55.20
2018-09-17T22:07:43.154Z,55.30
2018-09-17T22:10:11.219Z,55.60
2018-09-17T22:12:39.238Z,55.70
2018-09-17T22:15:07.254Z,55.80
2018-09-17T22:17:35.295Z,56.00
2018-09-17T22:20:03.307Z,56.00
2018-09-17T22:22:31.523Z,56.10
2018-09-17T22:24:59.994Z,56.90
2018-09-17T22:27:28.007Z,56.50
2018-09-17T22:29:56.043Z,56.80
2018-09-17T22:32:24.109Z,56.80
2018-09-17T22:34:52.119Z,57.00
2018-09-17T22:37:20.351Z,57.00
2018-09-17T22:39:48.373Z,57.00
2018-09-17T22:42:16.621Z,57.00
2018-09-17T22:44:44.770Z,57.30
2018-09-17T22:47:12.907Z,57.80
2018-09-17T22:49:40.938Z,57.20
2018-09-17T22:52:08.978Z,57.20
2018-09-17T22:54:37.739Z,57.30
2018-09-17T22:57:06.705Z,57.30
2018-09-17T22:59:34.724Z,57.30
2018-09-17T23:02:03.387Z,57.50
2018-09-17T23:04:31.402Z,57.40
2018-09-17T23:06:59.455Z,57.50
2018-09-17T23:09:27.491Z,57.40
2018-09-17T23:11:55.506Z,57.50
2018-09-17T23:14:23.584Z,57.50
2018-09-17T23:16:51.631Z,57.90
2018-09-17T23:19:19.630Z,57.50
2018-09-17T23:21:47.680Z,57.10
2018-09-17T23:24:15.724Z,57.60
2018-09-17T23:26:43.754Z,57.80
2018-09-17T23:29:11.814Z,58.00
2018-09-17T23:31:39.974Z,58.10
2018-09-17T23:34:08.039Z,58.20
2018-09-17T23:36:36.114Z,58.40
2018-09-17T23:39:08.080Z,58.50
2018-09-17T23:41:36.247Z,58.40
2018-09-17T23:44:04.275Z,58.60
2018-09-17T23:46:32.315Z,58.60
2018-09-17T23:49:01.207Z,58.70
2018-09-17T23:51:29.263Z,58.80
2018-09-17T23:53:57.734Z,58.80
2018-09-17T23:56:25.799Z,58.90
2018-09-17T23:58:53.829Z,59.20
